sensor_id;sensor_type;location;lat;lon;timestamp;temperature;humidity
13093;DHT22;6612;49.568;11.000;2024-02-21T00:01:37;11.70;55.80
13093;DHT22;6612;49.568;11.000;2024-02-21T00:04:04;11.70;55.80
13093;DHT22;6612;49.568;11.000;2024-02-21T00:06:31;11.70;55.80
13093;DHT22;6612;49.568;11.000;2024-02-21T00:08:58;11.70;55.90
13093;DHT22;6612;49.568;11.000;2024-02-21T00:11:27;11.70;55.90
13093;DHT22;6612;49.568;11.000;2024-02-21T00:13:54;11.70;55.90
13093;DHT22;6612;49.568;11.000;2024-02-21T00:16:21;11.70;55.80
13093;DHT22;6612;49.568;11.000;2024-02-21T00:18:48;11.70;55.90
13093;DHT22;6612;49.568;11.000;2024-02-21T00:21:15;11.70;55.90
13093;DHT22;6612;49.568;11.000;2024-02-21T00:23:44;11.70;55.90
13093;DHT22;6612;49.568;11.000;2024-02-21T00:26:12;11.70;56.50
13093;DHT22;6612;49.568;11.000;2024-02-21T00:28:40;11.70;55.80
13093;DHT22;6612;49.568;11.000;2024-02-21T00:31:07;11.70;55.90
13093;DHT22;6612;49.568;11.000;2024-02-21T00:33:34;11.70;55.80
13093;DHT22;6612;49.568;11.000;2024-02-21T00:36:01;11.60;55.70
13093;DHT22;6612;49.568;11.000;2024-02-21T00:38:28;11.60;55.80
13093;DHT22;6612;49.568;11.000;2024-02-21T00:40:55;11.60;55.80
13093;DHT22;6612;49.568;11.000;2024-02-21T00:43:22;11.60;55.80
13093;DHT22;6612;49.568;11.000;2024-02-21T00:45:51;11.60;55.90
13093;DHT22;6612;49.568;11.000;2024-02-21T00:48:18;11.60;56.00
13093;DHT22;6612;49.568;11.000;2024-02-21T00:50:45;11.50;55.90
13093;DHT22;6612;49.568;11.000;2024-02-21T00:53:12;11.50;56.00
13093;DHT22;6612;49.568;11.000;2024-02-21T00:55:39;11.50;56.10
13093;DHT22;6612;49.568;11.000;2024-02-21T00:58:06;11.50;56.10
13093;DHT22;6612;49.568;11.000;2024-02-21T01:00:33;11.50;56.20
13093;DHT22;6612;49.568;11.000;2024-02-21T01:03:02;11.50;56.30
13093;DHT22;6612;49.568;11.000;2024-02-21T01:05:29;11.50;56.40
13093;DHT22;6612;49.568;11.000;2024-02-21T01:07:56;11.60;56.50
13093;DHT22;6612;49.568;11.000;2024-02-21T01:10:23;11.60;56.50
13093;DHT22;6612;49.568;11.000;2024-02-21T01:12:50;11.60;56.50
13093;DHT22;6612;49.568;11.000;2024-02-21T01:15:17;11.60;56.60
13093;DHT22;6612;49.568;11.000;2024-02-21T01:17:44;11.60;56.70
13093;DHT22;6612;49.568;11.000;2024-02-21T01:20:13;11.60;56.60
13093;DHT22;6612;49.568;11.000;2024-02-21T01:22:40;11.60;56.60
13093;DHT22;6612;49.568;11.000;2024-02-21T01:25:08;11.60;56.60
13093;DHT22;6612;49.568;11.000;2024-02-21T01:27:35;11.60;56.70
13093;DHT22;6612;49.568;11.000;2024-02-21T01:30:02;11.70;56.80
13093;DHT22;6612;49.568;11.000;2024-02-21T01:32:29;11.70;56.70
13093;DHT22;6612;49.568;11.000;2024-02-21T01:34:56;11.70;56.70
13093;DHT22;6612;49.568;11.000;2024-02-21T01:37:24;11.70;56.80
13093;DHT22;6612;49.568;11.000;2024-02-21T01:39:51;11.70;56.80
13093;DHT22;6612;49.568;11.000;2024-02-21T01:42:18;11.70;56.70
13093;DHT22;6612;49.568;11.000;2024-02-21T01:44:45;11.70;56.60
13093;DHT22;6612;49.568;11.000;2024-02-21T01:47:13;11.70;56.60
13093;DHT22;6612;49.568;11.000;2024-02-21T01:49:41;11.70;56.60
13093;DHT22;6612;49.568;11.000;2024-02-21T01:52:09;11.70;56.60
13093;DHT22;6612;49.568;11.000;2024-02-21T01:54:38;11.70;56.70
13093;DHT22;6612;49.568;11.000;2024-02-21T01:57:05;11.70;56.70
13093;DHT22;6612;49.568;11.000;2024-02-21T01:59:32;11.70;56.70
13093;DHT22;6612;49.568;11.000;2024-02-21T02:02:02;11.70;56.70
13093;DHT22;6612;49.568;11.000;2024-02-21T02:04:29;11.70;56.70
13093;DHT22;6612;49.568;11.000;2024-02-21T02:06:57;11.70;56.80
13093;DHT22;6612;49.568;11.000;2024-02-21T02:09:24;11.70;56.80
13093;DHT22;6612;49.568;11.000;2024-02-21T02:11:53;11.70;56.90
13093;DHT22;6612;49.568;11.000;2024-02-21T02:14:20;11.70;56.90
13093;DHT22;6612;49.568;11.000;2024-02-21T02:16:47;11.70;56.90
13093;DHT22;6612;49.568;11.000;2024-02-21T02:19:14;11.70;56.90
13093;DHT22;6612;49.568;11.000;2024-02-21T02:21:45;11.70;56.80
13093;DHT22;6612;49.568;11.000;2024-02-21T02:24:14;11.70;56.90
13093;DHT22;6612;49.568;11.000;2024-02-21T02:26:42;11.70;56.90
13093;DHT22;6612;49.568;11.000;2024-02-21T02:29:09;11.70;56.90
13093;DHT22;6612;49.568;11.000;2024-02-21T02:31:36;11.70;56.90
13093;DHT22;6612;49.568;11.000;2024-02-21T02:34:04;11.70;56.90
13093;DHT22;6612;49.568;11.000;2024-02-21T02:36:32;11.70;56.80
13093;DHT22;6612;49.568;11.000;2024-02-21T02:38:59;11.60;56.80
13093;DHT22;6612;49.568;11.000;2024-02-21T02:41:28;11.70;56.80
13093;DHT22;6612;49.568;11.000;2024-02-21T02:43:55;11.60;56.80
13093;DHT22;6612;49.568;11.000;2024-02-21T02:46:22;11.60;56.80
13093;DHT22;6612;49.568;11.000;2024-02-21T02:48:49;11.60;56.80
13093;DHT22;6612;49.568;11.000;2024-02-21T02:51:16;11.60;56.80
13093;DHT22;6612;49.568;11.000;2024-02-21T02:53:43;11.60;56.80
13093;DHT22;6612;49.568;11.000;2024-02-21T02:56:14;11.60;56.80
13093;DHT22;6612;49.568;11.000;2024-02-21T02:58:43;11.60;57.00
13093;DHT22;6612;49.568;11.000;2024-02-21T03:01:10;11.60;57.00
13093;DHT22;6612;49.568;11.000;2024-02-21T03:03:36;11.60;57.60
13093;DHT22;6612;49.568;11.000;2024-02-21T03:06:03;11.50;57.00
13093;DHT22;6612;49.568;11.000;2024-02-21T03:08:31;11.50;57.00
13093;DHT22;6612;49.568;11.000;2024-02-21T03:10:58;11.50;57.00
13093;DHT22;6612;49.568;11.000;2024-02-21T03:13:26;11.50;57.10
13093;DHT22;6612;49.568;11.000;2024-02-21T03:15:54;11.50;57.10
13093;DHT22;6612;49.568;11.000;2024-02-21T03:18:21;11.50;57.20
13093;DHT22;6612;49.568;11.000;2024-02-21T03:20:48;11.50;57.20
13093;DHT22;6612;49.568;11.000;2024-02-21T03:23:15;11.50;57.30
13093;DHT22;6612;49.568;11.000;2024-02-21T03:25:42;11.50;57.30
13093;DHT22;6612;49.568;11.000;2024-02-21T03:28:09;11.50;57.30
13093;DHT22;6612;49.568;11.000;2024-02-21T03:30:36;11.50;57.40
13093;DHT22;6612;49.568;11.000;2024-02-21T03:33:05;11.50;57.40
13093;DHT22;6612;49.568;11.000;2024-02-21T03:35:32;11.50;57.50
13093;DHT22;6612;49.568;11.000;2024-02-21T03:37:59;11.50;57.40
13093;DHT22;6612;49.568;11.000;2024-02-21T03:40:26;11.50;57.40
13093;DHT22;6612;49.568;11.000;2024-02-21T03:42:53;11.50;57.40
13093;DHT22;6612;49.568;11.000;2024-02-21T03:45:20;11.50;57.40
13093;DHT22;6612;49.568;11.000;2024-02-21T03:47:47;11.50;57.40
13093;DHT22;6612;49.568;11.000;2024-02-21T03:50:15;11.50;57.40
13093;DHT22;6612;49.568;11.000;2024-02-21T03:52:42;11.50;57.50
13093;DHT22;6612;49.568;11.000;2024-02-21T03:55:09;11.50;57.40
13093;DHT22;6612;49.568;11.000;2024-02-21T03:57:36;11.50;57.50
13093;DHT22;6612;49.568;11.000;2024-02-21T04:00:05;11.50;57.50
13093;DHT22;6612;49.568;11.000;2024-02-21T04:02:36;11.50;57.50
13093;DHT22;6612;49.568;11.000;2024-02-21T04:05:04;11.50;57.60
13093;DHT22;6612;49.568;11.000;2024-02-21T04:07:32;11.60;57.80
13093;DHT22;6612;49.568;11.000;2024-02-21T04:09:59;11.60;57.90
13093;DHT22;6612;49.568;11.000;2024-02-21T04:12:26;11.60;58.10
13093;DHT22;6612;49.568;11.000;2024-02-21T04:14:53;11.60;58.20
13093;DHT22;6612;49.568;11.000;2024-02-21T04:17:20;11.60;58.40
13093;DHT22;6612;49.568;11.000;2024-02-21T04:19:47;11.60;58.40
13093;DHT22;6612;49.568;11.000;2024-02-21T04:22:13;11.60;58.50
13093;DHT22;6612;49.568;11.000;2024-02-21T04:24:42;11.60;58.60
13093;DHT22;6612;49.568;11.000;2024-02-21T04:27:09;11.50;58.70
13093;DHT22;6612;49.568;11.000;2024-02-21T04:29:36;11.50;58.70
13093;DHT22;6612;49.568;11.000;2024-02-21T04:32:03;11.50;58.80
13093;DHT22;6612;49.568;11.000;2024-02-21T04:34:30;11.50;59.00
13093;DHT22;6612;49.568;11.000;2024-02-21T04:36:57;11.50;59.10
13093;DHT22;6612;49.568;11.000;2024-02-21T04:39:24;11.50;59.20
13093;DHT22;6612;49.568;11.000;2024-02-21T04:41:52;11.50;59.30
13093;DHT22;6612;49.568;11.000;2024-02-21T04:44:19;11.50;59.50
13093;DHT22;6612;49.568;11.000;2024-02-21T04:46:48;11.50;59.40
13093;DHT22;6612;49.568;11.000;2024-02-21T04:49:15;11.50;59.50
13093;DHT22;6612;49.568;11.000;2024-02-21T04:51:42;11.50;59.50
13093;DHT22;6612;49.568;11.000;2024-02-21T04:54:09;11.50;59.60
13093;DHT22;6612;49.568;11.000;2024-02-21T04:56:36;11.40;59.50
13093;DHT22;6612;49.568;11.000;2024-02-21T04:59:04;11.40;59.50
13093;DHT22;6612;49.568;11.000;2024-02-21T05:01:31;11.40;59.50
13093;DHT22;6612;49.568;11.000;2024-02-21T05:03:58;11.40;59.40
13093;DHT22;6612;49.568;11.000;2024-02-21T05:06:25;11.40;59.40
13093;DHT22;6612;49.568;11.000;2024-02-21T05:08:52;11.40;59.30
13093;DHT22;6612;49.568;11.000;2024-02-21T05:11:21;11.30;59.30
13093;DHT22;6612;49.568;11.000;2024-02-21T05:13:48;11.30;59.30
13093;DHT22;6612;49.568;11.000;2024-02-21T05:16:16;11.30;59.30
13093;DHT22;6612;49.568;11.000;2024-02-21T05:18:45;11.20;59.30
13093;DHT22;6612;49.568;11.000;2024-02-21T05:21:12;11.20;59.20
13093;DHT22;6612;49.568;11.000;2024-02-21T05:23:39;11.10;59.80
13093;DHT22;6612;49.568;11.000;2024-02-21T05:26:06;11.10;59.20
13093;DHT22;6612;49.568;11.000;2024-02-21T05:28:33;11.00;59.20
13093;DHT22;6612;49.568;11.000;2024-02-21T05:31:00;11.00;59.20
13093;DHT22;6612;49.568;11.000;2024-02-21T05:33:29;11.00;59.30
13093;DHT22;6612;49.568;11.000;2024-02-21T05:35:56;10.90;60.00
13093;DHT22;6612;49.568;11.000;2024-02-21T05:38:23;10.90;59.40
13093;DHT22;6612;49.568;11.000;2024-02-21T05:40:50;10.90;59.50
13093;DHT22;6612;49.568;11.000;2024-02-21T05:43:17;10.80;59.50
13093;DHT22;6612;49.568;11.000;2024-02-21T05:45:44;10.80;59.60
13093;DHT22;6612;49.568;11.000;2024-02-21T05:48:11;10.80;59.60
13093;DHT22;6612;49.568;11.000;2024-02-21T05:50:39;10.70;60.30
13093;DHT22;6612;49.568;11.000;2024-02-21T05:53:06;10.70;59.80
13093;DHT22;6612;49.568;11.000;2024-02-21T05:55:33;10.70;59.70
13093;DHT22;6612;49.568;11.000;2024-02-21T05:58:00;10.70;59.70
13093;DHT22;6612;49.568;11.000;2024-02-21T06:00:27;10.60;59.70
13093;DHT22;6612;49.568;11.000;2024-02-21T06:02:55;10.60;59.70
13093;DHT22;6612;49.568;11.000;2024-02-21T06:05:22;10.50;59.70
13093;DHT22;6612;49.568;11.000;2024-02-21T06:07:50;10.50;59.60
13093;DHT22;6612;49.568;11.000;2024-02-21T06:10:17;10.40;59.70
13093;DHT22;6612;49.568;11.000;2024-02-21T06:12:44;10.40;59.60
13093;DHT22;6612;49.568;11.000;2024-02-21T06:15:11;10.40;59.70
13093;DHT22;6612;49.568;11.000;2024-02-21T06:17:38;10.30;59.60
13093;DHT22;6612;49.568;11.000;2024-02-21T06:20:06;10.30;59.70
13093;DHT22;6612;49.568;11.000;2024-02-21T06:22:33;10.20;59.70
13093;DHT22;6612;49.568;11.000;2024-02-21T06:25:02;10.20;59.80
13093;DHT22;6612;49.568;11.000;2024-02-21T06:27:29;10.10;59.90
13093;DHT22;6612;49.568;11.000;2024-02-21T06:29:56;10.10;59.90
13093;DHT22;6612;49.568;11.000;2024-02-21T06:32:23;10.00;59.90
13093;DHT22;6612;49.568;11.000;2024-02-21T06:34:50;10.00;60.00
13093;DHT22;6612;49.568;11.000;2024-02-21T06:37:17;10.00;60.20
13093;DHT22;6612;49.568;11.000;2024-02-21T06:39:44;9.90;61.30
13093;DHT22;6612;49.568;11.000;2024-02-21T06:42:13;9.90;61.50
13093;DHT22;6612;49.568;11.000;2024-02-21T06:44:40;9.90;61.80
13093;DHT22;6612;49.568;11.000;2024-02-21T06:47:07;9.90;61.90
13093;DHT22;6612;49.568;11.000;2024-02-21T06:49:34;9.90;62.10
13093;DHT22;6612;49.568;11.000;2024-02-21T06:52:03;9.90;62.40
13093;DHT22;6612;49.568;11.000;2024-02-21T06:54:30;9.90;62.80
13093;DHT22;6612;49.568;11.000;2024-02-21T06:56:57;10.00;62.10
13093;DHT22;6612;49.568;11.000;2024-02-21T06:59:25;10.00;62.50
13093;DHT22;6612;49.568;11.000;2024-02-21T07:01:54;10.10;63.00
13093;DHT22;6612;49.568;11.000;2024-02-21T07:04:21;10.20;63.70
13093;DHT22;6612;49.568;11.000;2024-02-21T07:06:48;10.40;64.60
13093;DHT22;6612;49.568;11.000;2024-02-21T07:09:15;10.60;65.40
13093;DHT22;6612;49.568;11.000;2024-02-21T07:11:42;10.80;65.60
13093;DHT22;6612;49.568;11.000;2024-02-21T07:14:09;11.10;65.70
13093;DHT22;6612;49.568;11.000;2024-02-21T07:16:37;11.40;66.10
13093;DHT22;6612;49.568;11.000;2024-02-21T07:19:04;11.60;66.40
13093;DHT22;6612;49.568;11.000;2024-02-21T07:21:31;11.90;66.30
13093;DHT22;6612;49.568;11.000;2024-02-21T07:23:58;12.20;66.40
13093;DHT22;6612;49.568;11.000;2024-02-21T07:26:25;12.50;66.30
13093;DHT22;6612;49.568;11.000;2024-02-21T07:28:52;12.80;66.00
13093;DHT22;6612;49.568;11.000;2024-02-21T07:31:19;13.10;65.10
13093;DHT22;6612;49.568;11.000;2024-02-21T07:33:48;13.30;64.10
13093;DHT22;6612;49.568;11.000;2024-02-21T07:36:15;13.40;63.30
13093;DHT22;6612;49.568;11.000;2024-02-21T07:38:42;13.60;64.00
13093;DHT22;6612;49.568;11.000;2024-02-21T07:41:09;13.90;65.30
13093;DHT22;6612;49.568;11.000;2024-02-21T07:43:36;14.20;66.50
13093;DHT22;6612;49.568;11.000;2024-02-21T07:46:03;14.70;67.50
13093;DHT22;6612;49.568;11.000;2024-02-21T07:48:30;15.20;67.70
13093;DHT22;6612;49.568;11.000;2024-02-21T07:50:59;15.70;67.50
13093;DHT22;6612;49.568;11.000;2024-02-21T07:53:26;16.20;66.90
13093;DHT22;6612;49.568;11.000;2024-02-21T07:55:53;16.80;67.00
13093;DHT22;6612;49.568;11.000;2024-02-21T07:58:20;17.30;65.90
13093;DHT22;6612;49.568;11.000;2024-02-21T08:00:47;17.70;64.20
13093;DHT22;6612;49.568;11.000;2024-02-21T08:03:14;18.10;62.70
13093;DHT22;6612;49.568;11.000;2024-02-21T08:05:43;18.40;60.80
13093;DHT22;6612;49.568;11.000;2024-02-21T08:08:12;18.60;59.60
13093;DHT22;6612;49.568;11.000;2024-02-21T08:10:43;18.70;58.30
13093;DHT22;6612;49.568;11.000;2024-02-21T08:13:10;18.70;57.30
13093;DHT22;6612;49.568;11.000;2024-02-21T08:15:37;18.80;56.80
13093;DHT22;6612;49.568;11.000;2024-02-21T08:18:05;18.80;56.50
13093;DHT22;6612;49.568;11.000;2024-02-21T08:20:32;18.80;56.20
13093;DHT22;6612;49.568;11.000;2024-02-21T08:22:59;18.80;55.60
13093;DHT22;6612;49.568;11.000;2024-02-21T08:25:27;18.80;55.10
13093;DHT22;6612;49.568;11.000;2024-02-21T08:27:56;18.80;54.70
13093;DHT22;6612;49.568;11.000;2024-02-21T08:30:23;18.80;54.60
13093;DHT22;6612;49.568;11.000;2024-02-21T08:32:51;18.80;54.60
13093;DHT22;6612;49.568;11.000;2024-02-21T08:35:19;18.80;54.30
13093;DHT22;6612;49.568;11.000;2024-02-21T08:37:48;18.80;54.70
13093;DHT22;6612;49.568;11.000;2024-02-21T08:40:15;18.80;53.90
13093;DHT22;6612;49.568;11.000;2024-02-21T08:42:47;18.80;54.20
13093;DHT22;6612;49.568;11.000;2024-02-21T08:45:15;18.90;54.30
13093;DHT22;6612;49.568;11.000;2024-02-21T08:47:42;19.10;54.60
13093;DHT22;6612;49.568;11.000;2024-02-21T08:50:10;19.20;54.40
13093;DHT22;6612;49.568;11.000;2024-02-21T08:52:37;19.40;53.90
13093;DHT22;6612;49.568;11.000;2024-02-21T08:55:05;19.40;52.70
13093;DHT22;6612;49.568;11.000;2024-02-21T08:57:32;19.50;51.80
13093;DHT22;6612;49.568;11.000;2024-02-21T09:00:05;19.40;51.30
13093;DHT22;6612;49.568;11.000;2024-02-21T09:02:36;19.40;50.70
13093;DHT22;6612;49.568;11.000;2024-02-21T09:05:04;19.30;50.90
13093;DHT22;6612;49.568;11.000;2024-02-21T09:07:32;19.20;50.60
13093;DHT22;6612;49.568;11.000;2024-02-21T09:09:59;19.10;50.50
13093;DHT22;6612;49.568;11.000;2024-02-21T09:12:26;19.00;50.60
13093;DHT22;6612;49.568;11.000;2024-02-21T09:14:53;18.90;50.70
13093;DHT22;6612;49.568;11.000;2024-02-21T09:17:21;18.90;50.70
13093;DHT22;6612;49.568;11.000;2024-02-21T09:19:50;18.90;50.70
13093;DHT22;6612;49.568;11.000;2024-02-21T09:22:17;18.80;51.00
13093;DHT22;6612;49.568;11.000;2024-02-21T09:24:44;18.90;51.10
13093;DHT22;6612;49.568;11.000;2024-02-21T09:27:13;18.90;51.10
13093;DHT22;6612;49.568;11.000;2024-02-21T09:29:40;18.90;51.10
13093;DHT22;6612;49.568;11.000;2024-02-21T09:32:07;19.00;51.20
13093;DHT22;6612;49.568;11.000;2024-02-21T09:34:35;19.10;51.10
13093;DHT22;6612;49.568;11.000;2024-02-21T09:37:02;19.10;50.80
13093;DHT22;6612;49.568;11.000;2024-02-21T09:39:30;19.20;50.90
13093;DHT22;6612;49.568;11.000;2024-02-21T09:41:59;19.30;50.80
13093;DHT22;6612;49.568;11.000;2024-02-21T09:44:30;19.30;50.70
13093;DHT22;6612;49.568;11.000;2024-02-21T09:47:03;19.40;50.20
13093;DHT22;6612;49.568;11.000;2024-02-21T09:49:31;19.40;50.00
13093;DHT22;6612;49.568;11.000;2024-02-21T09:52:02;19.50;50.10
13093;DHT22;6612;49.568;11.000;2024-02-21T09:54:30;19.60;49.50
13093;DHT22;6612;49.568;11.000;2024-02-21T09:56:57;19.60;49.60
13093;DHT22;6612;49.568;11.000;2024-02-21T09:59:25;19.70;49.30
13093;DHT22;6612;49.568;11.000;2024-02-21T10:01:54;19.60;48.80
13093;DHT22;6612;49.568;11.000;2024-02-21T10:04:21;19.70;48.70
13093;DHT22;6612;49.568;11.000;2024-02-21T10:06:48;19.60;48.40
13093;DHT22;6612;49.568;11.000;2024-02-21T10:09:24;19.60;48.40
13093;DHT22;6612;49.568;11.000;2024-02-21T10:11:53;19.70;47.60
13093;DHT22;6612;49.568;11.000;2024-02-21T10:14:20;19.60;48.50
13093;DHT22;6612;49.568;11.000;2024-02-21T10:16:48;19.70;48.50
13093;DHT22;6612;49.568;11.000;2024-02-21T10:19:17;19.70;48.70
13093;DHT22;6612;49.568;11.000;2024-02-21T10:21:45;19.70;48.60
13093;DHT22;6612;49.568;11.000;2024-02-21T10:24:12;19.80;48.10
13093;DHT22;6612;49.568;11.000;2024-02-21T10:26:41;19.80;47.80
13093;DHT22;6612;49.568;11.000;2024-02-21T10:29:09;19.80;47.60
13093;DHT22;6612;49.568;11.000;2024-02-21T10:31:36;19.80;47.40
13093;DHT22;6612;49.568;11.000;2024-02-21T10:34:04;19.80;47.50
13093;DHT22;6612;49.568;11.000;2024-02-21T10:36:31;19.80;47.60
13093;DHT22;6612;49.568;11.000;2024-02-21T10:38:58;19.80;47.60
13093;DHT22;6612;49.568;11.000;2024-02-21T10:41:25;19.90;47.60
13093;DHT22;6612;49.568;11.000;2024-02-21T10:43:55;19.90;48.10
13093;DHT22;6612;49.568;11.000;2024-02-21T10:46:22;20.00;47.10
13093;DHT22;6612;49.568;11.000;2024-02-21T10:49:04;20.00;47.00
13093;DHT22;6612;49.568;11.000;2024-02-21T10:51:34;20.10;45.90
13093;DHT22;6612;49.568;11.000;2024-02-21T10:54:11;20.20;46.90
13093;DHT22;6612;49.568;11.000;2024-02-21T10:56:40;20.20;46.30
13093;DHT22;6612;49.568;11.000;2024-02-21T10:59:13;20.20;46.50
13093;DHT22;6612;49.568;11.000;2024-02-21T11:01:40;20.20;45.70
13093;DHT22;6612;49.568;11.000;2024-02-21T11:04:08;20.20;46.00
13093;DHT22;6612;49.568;11.000;2024-02-21T11:06:38;20.20;45.90
13093;DHT22;6612;49.568;11.000;2024-02-21T11:09:06;20.10;45.50
13093;DHT22;6612;49.568;11.000;2024-02-21T11:11:33;20.10;45.30
13093;DHT22;6612;49.568;11.000;2024-02-21T11:14:05;20.00;45.20
13093;DHT22;6612;49.568;11.000;2024-02-21T11:16:37;20.00;44.90
13093;DHT22;6612;49.568;11.000;2024-02-21T11:19:09;19.90;44.90
13093;DHT22;6612;49.568;11.000;2024-02-21T11:21:37;19.90;45.20
13093;DHT22;6612;49.568;11.000;2024-02-21T11:24:05;19.80;45.10
13093;DHT22;6612;49.568;11.000;2024-02-21T11:26:32;19.70;45.00
13093;DHT22;6612;49.568;11.000;2024-02-21T11:29:00;19.60;44.90
13093;DHT22;6612;49.568;11.000;2024-02-21T11:31:39;19.60;44.70
13093;DHT22;6612;49.568;11.000;2024-02-21T11:34:09;19.50;43.80
13093;DHT22;6612;49.568;11.000;2024-02-21T11:36:45;19.40;44.30
13093;DHT22;6612;49.568;11.000;2024-02-21T11:39:13;19.40;44.60
13093;DHT22;6612;49.568;11.000;2024-02-21T11:41:40;19.30;44.60
13093;DHT22;6612;49.568;11.000;2024-02-21T11:44:07;19.20;44.30
13093;DHT22;6612;49.568;11.000;2024-02-21T11:46:34;19.20;44.30
13093;DHT22;6612;49.568;11.000;2024-02-21T11:49:02;19.10;44.30
13093;DHT22;6612;49.568;11.000;2024-02-21T11:51:29;19.00;44.30
13093;DHT22;6612;49.568;11.000;2024-02-21T11:53:56;19.00;44.30
13093;DHT22;6612;49.568;11.000;2024-02-21T11:56:23;19.00;44.30
13093;DHT22;6612;49.568;11.000;2024-02-21T11:58:51;18.90;44.30
13093;DHT22;6612;49.568;11.000;2024-02-21T12:01:18;18.80;44.50
13093;DHT22;6612;49.568;11.000;2024-02-21T12:03:45;18.80;44.60
13093;DHT22;6612;49.568;11.000;2024-02-21T12:06:17;18.80;44.40
13093;DHT22;6612;49.568;11.000;2024-02-21T12:08:47;18.70;44.10
13093;DHT22;6612;49.568;11.000;2024-02-21T12:11:20;18.70;44.40
13093;DHT22;6612;49.568;11.000;2024-02-21T12:13:57;18.70;43.70
13093;DHT22;6612;49.568;11.000;2024-02-21T12:16:26;18.70;44.40
13093;DHT22;6612;49.568;11.000;2024-02-21T12:18:53;18.70;44.40
13093;DHT22;6612;49.568;11.000;2024-02-21T12:21:25;18.70;44.60
13093;DHT22;6612;49.568;11.000;2024-02-21T12:23:54;18.70;44.40
13093;DHT22;6612;49.568;11.000;2024-02-21T12:26:21;18.70;44.70
13093;DHT22;6612;49.568;11.000;2024-02-21T12:28:48;18.70;44.50
13093;DHT22;6612;49.568;11.000;2024-02-21T12:31:15;18.70;44.40
13093;DHT22;6612;49.568;11.000;2024-02-21T12:33:43;18.70;44.50
13093;DHT22;6612;49.568;11.000;2024-02-21T12:36:10;18.70;44.40
13093;DHT22;6612;49.568;11.000;2024-02-21T12:38:39;18.70;44.30
13093;DHT22;6612;49.568;11.000;2024-02-21T12:41:06;18.70;44.10
13093;DHT22;6612;49.568;11.000;2024-02-21T12:43:33;18.70;44.10
13093;DHT22;6612;49.568;11.000;2024-02-21T12:46:01;18.70;44.00
13093;DHT22;6612;49.568;11.000;2024-02-21T12:48:28;18.70;44.00
13093;DHT22;6612;49.568;11.000;2024-02-21T12:50:55;18.70;43.80
13093;DHT22;6612;49.568;11.000;2024-02-21T12:53:22;18.70;43.70
13093;DHT22;6612;49.568;11.000;2024-02-21T12:55:51;18.60;43.50
13093;DHT22;6612;49.568;11.000;2024-02-21T12:58:18;18.60;43.40
13093;DHT22;6612;49.568;11.000;2024-02-21T13:00:47;18.60;43.60
13093;DHT22;6612;49.568;11.000;2024-02-21T13:03:14;18.60;43.50
13093;DHT22;6612;49.568;11.000;2024-02-21T13:05:41;18.60;43.60
13093;DHT22;6612;49.568;11.000;2024-02-21T13:08:09;18.50;43.50
13093;DHT22;6612;49.568;11.000;2024-02-21T13:10:37;18.60;43.60
13093;DHT22;6612;49.568;11.000;2024-02-21T13:13:06;18.60;43.70
13093;DHT22;6612;49.568;11.000;2024-02-21T13:15:33;18.50;42.60
13093;DHT22;6612;49.568;11.000;2024-02-21T13:18:00;18.50;43.30
13093;DHT22;6612;49.568;11.000;2024-02-21T13:20:27;18.50;43.30
13093;DHT22;6612;49.568;11.000;2024-02-21T13:22:54;18.50;43.20
13093;DHT22;6612;49.568;11.000;2024-02-21T13:25:21;18.50;43.00
13093;DHT22;6612;49.568;11.000;2024-02-21T13:27:48;18.50;42.80
13093;DHT22;6612;49.568;11.000;2024-02-21T13:30:17;18.40;42.50
13093;DHT22;6612;49.568;11.000;2024-02-21T13:32:44;18.40;42.50
13093;DHT22;6612;49.568;11.000;2024-02-21T13:35:13;18.40;42.60
13093;DHT22;6612;49.568;11.000;2024-02-21T13:37:40;18.40;42.80
13093;DHT22;6612;49.568;11.000;2024-02-21T13:40:08;18.40;42.60
13093;DHT22;6612;49.568;11.000;2024-02-21T13:42:36;18.40;42.50
13093;DHT22;6612;49.568;11.000;2024-02-21T13:45:03;18.40;42.20
13093;DHT22;6612;49.568;11.000;2024-02-21T13:47:32;18.40;42.30
13093;DHT22;6612;49.568;11.000;2024-02-21T13:49:59;18.40;42.20
13093;DHT22;6612;49.568;11.000;2024-02-21T13:52:26;18.40;42.30
13093;DHT22;6612;49.568;11.000;2024-02-21T13:54:53;18.40;42.30
13093;DHT22;6612;49.568;11.000;2024-02-21T13:57:20;18.40;42.10
13093;DHT22;6612;49.568;11.000;2024-02-21T13:59:47;18.30;42.00
13093;DHT22;6612;49.568;11.000;2024-02-21T14:02:14;18.30;42.10
13093;DHT22;6612;49.568;11.000;2024-02-21T14:04:43;18.30;41.90
13093;DHT22;6612;49.568;11.000;2024-02-21T14:07:10;18.30;41.70
13093;DHT22;6612;49.568;11.000;2024-02-21T14:09:37;18.30;41.60
13093;DHT22;6612;49.568;11.000;2024-02-21T14:12:05;18.30;41.80
13093;DHT22;6612;49.568;11.000;2024-02-21T14:14:34;18.30;41.70
13093;DHT22;6612;49.568;11.000;2024-02-21T14:17:01;18.30;41.40
13093;DHT22;6612;49.568;11.000;2024-02-21T14:19:29;18.20;41.20
13093;DHT22;6612;49.568;11.000;2024-02-21T14:21:57;18.20;41.20
13093;DHT22;6612;49.568;11.000;2024-02-21T14:24:24;18.20;41.20
13093;DHT22;6612;49.568;11.000;2024-02-21T14:26:53;18.10;41.20
13093;DHT22;6612;49.568;11.000;2024-02-21T14:29:20;18.10;41.10
13093;DHT22;6612;49.568;11.000;2024-02-21T14:31:47;18.10;41.10
13093;DHT22;6612;49.568;11.000;2024-02-21T14:34:14;18.00;41.10
13093;DHT22;6612;49.568;11.000;2024-02-21T14:36:42;18.00;41.20
13093;DHT22;6612;49.568;11.000;2024-02-21T14:39:10;18.00;41.30
13093;DHT22;6612;49.568;11.000;2024-02-21T14:41:37;18.00;41.20
13093;DHT22;6612;49.568;11.000;2024-02-21T14:44:05;18.00;41.40
13093;DHT22;6612;49.568;11.000;2024-02-21T14:46:36;18.00;41.30
13093;DHT22;6612;49.568;11.000;2024-02-21T14:49:04;17.90;41.20
13093;DHT22;6612;49.568;11.000;2024-02-21T14:51:31;17.90;41.20
13093;DHT22;6612;49.568;11.000;2024-02-21T14:53:59;17.90;41.40
13093;DHT22;6612;49.568;11.000;2024-02-21T14:56:27;17.90;41.20
13093;DHT22;6612;49.568;11.000;2024-02-21T14:58:54;17.90;41.30
13093;DHT22;6612;49.568;11.000;2024-02-21T15:01:21;17.80;41.20
13093;DHT22;6612;49.568;11.000;2024-02-21T15:03:48;17.80;41.30
13093;DHT22;6612;49.568;11.000;2024-02-21T15:06:17;17.80;41.00
13093;DHT22;6612;49.568;11.000;2024-02-21T15:08:44;17.70;40.80
13093;DHT22;6612;49.568;11.000;2024-02-21T15:11:11;17.70;40.80
13093;DHT22;6612;49.568;11.000;2024-02-21T15:13:39;17.60;40.70
13093;DHT22;6612;49.568;11.000;2024-02-21T15:16:06;17.60;40.70
13093;DHT22;6612;49.568;11.000;2024-02-21T15:18:33;17.60;40.90
13093;DHT22;6612;49.568;11.000;2024-02-21T15:21:04;17.50;40.80
13093;DHT22;6612;49.568;11.000;2024-02-21T15:23:32;17.50;40.70
13093;DHT22;6612;49.568;11.000;2024-02-21T15:25:59;17.40;40.80
13093;DHT22;6612;49.568;11.000;2024-02-21T15:28:26;17.30;40.70
13093;DHT22;6612;49.568;11.000;2024-02-21T15:30:55;17.30;40.70
13093;DHT22;6612;49.568;11.000;2024-02-21T15:33:23;17.30;40.60